Aeroporto :
LOGIN :

Iscrizione | Disclaimer

   EN    FR    IT 

 










Sommario :    VFR   VFR Marginale   IFR   IFR Intensivo   IFR Molto Intensivo
Visibilità : 
Base nubi : 
>= 8 km
>= 3000ft
5 / 8 km
1000 / 3000 ft
1500m / 5 km
500 / 1000 ft
800 / 1500m
200 / 500 ft
< 800m
< 200 ft
Simboli :   Temporali  Nebbia  Neve Forte  Precipitazioni Forti  Vento > 20 kt
SIGMETs :   Varie  Temporali  Ghiacco  Turbolenza  Onda orograficha  Ceneri Vulcaniche






- Altitudine del aeroporto : 55 ft


EGNO - Warton Preston

ULTIMO METAR :
  • 151320Z 18005KT 110V220 9999 SCT040 20/11 Q1007

METARs OBSOLETI :
  • 151250Z 17005KT 110V230 9999 SCT038 21/12 Q1007
  • 151220Z 16006KT 110V210 9999 SCT038 21/12 Q1008
  • 151150Z 17005KT 130V200 9999 SCT037 20/12 Q1008
  • 151120Z 17005KT 080V240 9999 SCT035 20/11 Q1008
  • 151050Z VRB02KT 9999 SCT035 19/12 Q1008
  • 151020Z VRB02KT 9999 FEW026 19/12 Q1008
  • 150950Z 12004KT 070V190 9999 FEW030 18/12 Q1009
  • 150920Z 14004KT 090V180 9999 FEW030 18/12 Q1009
  • 150850Z 12003KT 040V190 9999 FEW030 17/12 Q1009

TAF TAF EGNO
Valido dal 15 a 12 ore il 15 a 18 ore UTC


151100Z 1512/1518 VRB03KT 9999 FEW045
TEMPO 1514/1518 7000 RA
PROB40
TEMPO 1517/1518 4000 +RA +SHRA BKN009 BKN015CB
ATIS : +44 1772 856 060



MetMap, La meteo Aeronautica in un colpo d'occhio ! - Copyright ORBIFLY Dicembre 2007 - Disclaimer

ORBIFLY MET'MAP TEAM :

Programmazione e sviluppo : Alexandra Zaïnal
Concezione : Baudouin d'Aumeries
Supporto tecnico e logistico : Manuel Goepfert
Aiuto : Marc-Olivier Méhu
Aiuto per la traduzione : Arnaldo La Scala




FONTI E CREDITI :

   NOAA